createdAt,value
2018-06-02T00:00:41.207Z,5.63
2018-06-02T00:03:09.510Z,6.63
2018-06-02T00:05:38.574Z,5.60
2018-06-02T00:08:07.441Z,6.20
2018-06-02T00:10:35.743Z,5.93
2018-06-02T00:13:05.572Z,5.93
2018-06-02T00:15:33.882Z,6.43
2018-06-02T00:18:02.198Z,6.67
2018-06-02T00:20:30.809Z,6.17
2018-06-02T00:22:59.110Z,6.77
2018-06-02T00:25:28.177Z,6.93
2018-06-02T00:27:57.369Z,6.20
2018-06-02T00:30:26.373Z,6.90
2018-06-02T00:32:56.158Z,6.23
2018-06-02T00:35:24.649Z,6.23
2018-06-02T00:37:52.938Z,4.47
2018-06-02T00:40:21.854Z,6.83
2018-06-02T00:42:51.040Z,6.50
2018-06-02T00:45:19.412Z,7.20
2018-06-02T00:47:49.321Z,6.40
2018-06-02T00:50:20.104Z,7.07
2018-06-02T00:52:48.452Z,7.30
2018-06-02T00:55:16.744Z,7.17
2018-06-02T00:57:45.838Z,6.23
2018-06-02T01:00:14.974Z,6.97
2018-06-02T01:02:43.825Z,6.80
2018-06-02T01:05:12.892Z,6.63
2018-06-02T01:07:41.650Z,7.47
2018-06-02T01:10:09.959Z,6.83
2018-06-02T01:12:38.341Z,7.43
2018-06-02T01:15:06.739Z,6.97
2018-06-02T01:17:35.082Z,7.40
2018-06-02T01:20:03.377Z,6.93
2018-06-02T01:22:31.726Z,7.50
2018-06-02T01:25:00.066Z,7.80
2018-06-02T01:27:29.906Z,6.70
2018-06-02T01:29:59.757Z,7.77
2018-06-02T01:32:28.156Z,7.00
2018-06-02T01:34:56.486Z,7.20
2018-06-02T01:37:26.136Z,6.60
2018-06-02T01:39:54.430Z,6.83
2018-06-02T01:42:23.446Z,7.00
2018-06-02T01:44:52.572Z,6.93
2018-06-02T01:47:20.944Z,7.60
2018-06-02T01:49:49.992Z,7.43
2018-06-02T01:52:18.873Z,6.77
2018-06-02T01:54:47.189Z,6.90
2018-06-02T01:57:16.914Z,6.70
2018-06-02T01:59:45.204Z,8.03
2018-06-02T02:02:13.836Z,8.80
2018-06-02T02:04:42.154Z,8.50
2018-06-02T02:07:12.098Z,7.80
2018-06-02T02:09:41.618Z,7.30
2018-06-02T02:12:09.954Z,7.70
2018-06-02T02:14:39.025Z,7.73
2018-06-02T02:17:08.156Z,7.97
2018-06-02T02:19:37.518Z,6.57
2018-06-02T02:22:06.148Z,8.33
2018-06-02T02:24:36.190Z,8.20
2018-06-02T02:27:04.589Z,8.07
2018-06-02T02:29:33.110Z,8.10
2018-06-02T02:32:03.749Z,7.40
2018-06-02T02:34:33.758Z,8.27
2018-06-02T02:37:03.235Z,6.77
2018-06-02T02:39:31.534Z,6.60
2018-06-02T02:41:59.852Z,7.40
2018-06-02T02:44:28.270Z,8.10
2018-06-02T02:46:57.160Z,8.40
2018-06-02T02:49:25.515Z,8.50
2018-06-02T02:51:54.621Z,8.30
2018-06-02T02:54:22.979Z,7.00
2018-06-02T02:56:51.395Z,7.27
2018-06-02T02:59:20.290Z,9.20
2018-06-02T03:01:49.283Z,7.97
2018-06-02T03:04:17.621Z,7.50
2018-06-02T03:06:46.358Z,7.60
2018-06-02T03:09:15.455Z,7.87
2018-06-02T03:11:43.894Z,8.23
2018-06-02T03:14:12.210Z,8.37
2018-06-02T03:16:42.267Z,7.23
2018-06-02T03:19:11.373Z,7.10
2018-06-02T03:21:40.420Z,8.10
2018-06-02T03:24:08.721Z,6.47
2018-06-02T03:26:37.271Z,7.77
2018-06-02T03:29:05.574Z,8.80
2018-06-02T03:31:36.019Z,8.20
2018-06-02T03:34:05.151Z,7.60
2018-06-02T03:36:33.948Z,7.30
2018-06-02T03:39:03.102Z,7.33
2018-06-02T03:41:32.173Z,7.43
2018-06-02T03:44:00.547Z,8.83
2018-06-02T03:46:28.871Z,7.17
2018-06-02T03:48:57.918Z,6.77
2018-06-02T03:51:26.597Z,8.57
2018-06-02T03:53:54.894Z,7.30
2018-06-02T03:56:25.910Z,9.23
2018-06-02T03:58:54.218Z,15.70
2018-06-02T04:01:22.553Z,20.67
2018-06-02T04:03:51.686Z,18.87
2018-06-02T04:06:20.879Z,22.00
2018-06-02T04:08:49.258Z,24.70
2018-06-02T04:11:17.763Z,22.03
2018-06-02T04:13:47.263Z,21.50
2018-06-02T04:16:15.583Z,27.80
2018-06-02T04:18:44.573Z,29.40
2018-06-02T04:21:13.299Z,31.17
2018-06-02T04:23:42.888Z,33.50
2018-06-02T04:26:11.183Z,37.23
2018-06-02T04:28:42.958Z,33.57
2018-06-02T04:31:12.441Z,39.60
2018-06-02T04:33:40.739Z,37.40
2018-06-02T04:36:12.922Z,39.20
2018-06-02T04:38:42.013Z,39.63
2018-06-02T04:41:10.332Z,35.70
2018-06-02T04:43:39.514Z,43.63
2018-06-02T04:46:13.564Z,39.07
2018-06-02T04:48:41.908Z,50.40
2018-06-02T04:51:11.084Z,44.27
2018-06-02T04:53:39.376Z,51.20
2018-06-02T04:56:07.682Z,51.87
2018-06-02T04:58:36.835Z,51.93
2018-06-02T05:01:05.636Z,54.30
2018-06-02T05:03:33.926Z,60.77
2018-06-02T05:06:03.090Z,60.80
2018-06-02T05:08:32.443Z,57.37
2018-06-02T05:11:01.523Z,58.77
2018-06-02T05:13:31.427Z,56.07
2018-06-02T05:15:59.908Z,57.43
2018-06-02T05:18:30.140Z,55.10
2018-06-02T05:20:58.815Z,51.23
2018-06-02T05:23:28.610Z,52.70
2018-06-02T05:25:56.921Z,53.10
2018-06-02T05:28:27.358Z,54.60
2018-06-02T05:31:04.588Z,51.33
2018-06-02T05:33:34.250Z,48.53
2018-06-02T05:36:04.309Z,48.87
2018-06-02T05:38:32.920Z,50.57
2018-06-02T05:41:01.324Z,49.27
2018-06-02T05:43:29.678Z,49.23
2018-06-02T05:45:58.967Z,48.73
2018-06-02T05:48:28.120Z,47.50
2018-06-02T05:50:57.190Z,48.87
2018-06-02T05:53:25.552Z,45.20
2018-06-02T05:55:54.138Z,51.37
2018-06-02T05:58:23.721Z,45.67
2018-06-02T06:00:52.016Z,49.53
2018-06-02T06:03:21.362Z,50.83
2018-06-02T06:05:49.990Z,52.33
2018-06-02T06:08:19.771Z,56.70
2018-06-02T06:10:48.126Z,53.07
2018-06-02T06:13:18.771Z,50.23
2018-06-02T06:15:47.193Z,58.37
2018-06-02T06:18:15.893Z,58.47
2018-06-02T06:20:44.379Z,65.27
2018-06-02T06:23:14.022Z,62.37
2018-06-02T06:25:42.988Z,59.07
2018-06-02T06:28:11.610Z,63.00
2018-06-02T06:30:40.352Z,64.47
2018-06-02T06:33:08.901Z,62.10
2018-06-02T06:35:38.002Z,64.27
2018-06-02T06:38:07.875Z,60.40
2018-06-02T06:40:37.674Z,60.10
2018-06-02T06:43:06.781Z,58.97
2018-06-02T06:45:36.017Z,54.17
2018-06-02T06:48:05.826Z,54.27
2018-06-02T06:50:34.908Z,52.27
2018-06-02T06:53:04.263Z,49.50
2018-06-02T06:55:33.401Z,49.60
2018-06-02T06:58:03.211Z,51.10
2018-06-02T07:00:32.325Z,50.90
2018-06-02T07:03:01.087Z,52.87
2018-06-02T07:05:29.405Z,49.80
2018-06-02T07:07:59.878Z,46.20
2018-06-02T07:10:28.772Z,41.67
2018-06-02T07:12:57.379Z,41.27
2018-06-02T07:15:26.301Z,41.23
2018-06-02T07:17:56.387Z,39.20
2018-06-02T07:20:24.969Z,43.20
2018-06-02T07:22:53.747Z,41.50
2018-06-02T07:25:22.056Z,41.27
2018-06-02T07:27:51.129Z,41.27
2018-06-02T07:30:19.750Z,40.70
2018-06-02T07:32:48.683Z,43.07
2018-06-02T07:35:17.060Z,41.43
2018-06-02T07:37:45.972Z,39.43
2018-06-02T07:40:14.282Z,40.73
2018-06-02T07:42:42.605Z,43.30
2018-06-02T07:45:10.941Z,42.07
2018-06-02T07:47:40.773Z,41.60
2018-06-02T07:50:10.819Z,41.67
2018-06-02T07:52:39.914Z,39.20
2018-06-02T07:55:09.765Z,42.93
2018-06-02T07:57:39.418Z,40.93
2018-06-02T08:00:09.294Z,40.10
2018-06-02T08:02:38.141Z,44.60
2018-06-02T08:05:08.115Z,41.93
2018-06-02T08:07:38.434Z,44.37
2018-06-02T08:13:11.411Z,45.60
2018-06-02T08:15:39.783Z,48.43
2018-06-02T08:18:09.826Z,52.77
2018-06-02T08:20:38.222Z,60.77
2018-06-02T08:23:06.748Z,58.77
2018-06-02T08:25:35.067Z,63.53
2018-06-02T08:28:03.366Z,66.90
2018-06-02T08:30:31.694Z,67.77
2018-06-02T08:33:00.117Z,69.73
2018-06-02T08:35:28.513Z,75.37
2018-06-02T08:37:58.611Z,77.00
2018-06-02T08:40:27.276Z,83.97
2018-06-02T08:42:55.742Z,83.30
2018-06-02T08:45:24.167Z,76.50
2018-06-02T08:47:52.728Z,79.30
2018-06-02T08:50:21.348Z,80.00
2018-06-02T08:52:49.673Z,79.97
2018-06-02T08:55:18.190Z,77.13
2018-06-02T08:57:47.282Z,83.43
2018-06-02T09:00:15.854Z,89.83
2018-06-02T09:02:44.503Z,86.87
2018-06-02T09:05:14.601Z,88.67
2018-06-02T09:07:43.768Z,77.53
2018-06-02T09:10:12.425Z,84.13
2018-06-02T09:12:40.851Z,90.10
2018-06-02T09:15:09.301Z,80.93
2018-06-02T09:17:37.615Z,79.77
2018-06-02T09:20:06.695Z,81.27
2018-06-02T09:22:35.148Z,83.63
2018-06-02T09:25:03.492Z,83.47
2018-06-02T09:27:32.515Z,75.77
2018-06-02T09:30:01.349Z,83.50
2018-06-02T09:32:30.270Z,73.93
2018-06-02T09:34:59.082Z,74.70
2018-06-02T09:37:27.933Z,67.90
2018-06-02T09:39:56.654Z,69.90
2018-06-02T09:42:26.349Z,73.00
2018-06-02T09:44:56.250Z,69.70
2018-06-02T09:47:24.790Z,69.60
2018-06-02T09:49:53.122Z,73.53
2018-06-02T09:52:23.889Z,72.07
2018-06-02T09:54:53.239Z,71.43
2018-06-02T09:57:21.584Z,70.63
2018-06-02T09:59:50.924Z,65.67
2018-06-02T10:02:19.401Z,66.97
2018-06-02T10:04:48.546Z,69.13
2018-06-02T10:07:17.670Z,69.53
2018-06-02T10:09:47.473Z,71.97
2018-06-02T10:12:17.340Z,67.50
2018-06-02T10:14:47.222Z,71.57
2018-06-02T10:17:15.535Z,64.03
2018-06-02T10:19:44.600Z,69.43
2018-06-02T10:22:13.109Z,71.97
2018-06-02T10:24:41.433Z,73.40
2018-06-02T10:27:09.766Z,68.10
2018-06-02T10:29:39.023Z,62.73
2018-06-02T10:32:09.565Z,65.40
2018-06-02T10:34:38.634Z,66.40
2018-06-02T10:37:08.430Z,68.10
2018-06-02T10:39:38.394Z,61.00
2018-06-02T10:42:06.734Z,54.90
2018-06-02T10:44:35.980Z,54.60
2018-06-02T10:47:04.454Z,54.73
2018-06-02T10:49:32.866Z,55.40
2018-06-02T10:52:01.346Z,54.43
2018-06-02T10:54:30.529Z,55.53
2018-06-02T10:56:58.866Z,52.30
2018-06-02T10:59:28.617Z,53.13
2018-06-02T11:01:56.949Z,46.40
2018-06-02T11:04:26.066Z,48.63
2018-06-02T11:06:54.391Z,47.20
2018-06-02T11:09:22.752Z,45.20
2018-06-02T11:11:51.059Z,44.70
2018-06-02T11:14:20.868Z,44.93
2018-06-02T11:16:49.251Z,44.17
2018-06-02T11:19:17.618Z,43.03
2018-06-02T11:21:46.249Z,40.97
2018-06-02T11:24:15.615Z,44.80
2018-06-02T11:26:47.053Z,40.73
2018-06-02T11:29:16.733Z,39.00
2018-06-02T11:31:45.644Z,39.57
2018-06-02T11:34:14.819Z,40.43
2018-06-02T11:36:43.137Z,36.27
2018-06-02T11:39:11.443Z,38.70
2018-06-02T11:41:40.808Z,38.10
2018-06-02T11:44:09.528Z,40.60
2018-06-02T11:46:38.749Z,40.60
2018-06-02T11:49:08.668Z,38.87
2018-06-02T11:51:37.829Z,37.77
2018-06-02T11:54:06.131Z,40.13
2018-06-02T11:56:36.045Z,38.97
2018-06-02T11:59:04.397Z,40.93
2018-06-02T12:01:33.620Z,41.20
2018-06-02T12:04:01.927Z,38.20
2018-06-02T12:06:31.172Z,38.90
2018-06-02T12:08:59.491Z,39.40
2018-06-02T12:11:28.662Z,37.60
2018-06-02T12:13:59.303Z,37.10
2018-06-02T12:16:28.500Z,37.67
2018-06-02T12:18:59.252Z,37.13
2018-06-02T12:21:27.612Z,37.30
2018-06-02T12:23:57.871Z,36.03
2018-06-02T12:26:26.966Z,27.17
2018-06-02T12:28:57.495Z,23.80
2018-06-02T12:31:26.594Z,20.50
2018-06-02T12:33:56.134Z,19.23
2018-06-02T12:36:24.860Z,19.03
2018-06-02T12:38:53.951Z,19.03
2018-06-02T12:41:23.566Z,19.60
2018-06-02T12:43:53.395Z,20.07
2018-06-02T12:46:24.472Z,19.93
2018-06-02T12:48:52.895Z,21.10
2018-06-02T12:51:21.585Z,22.23
2018-06-02T12:53:49.923Z,21.90
2018-06-02T12:56:19.705Z,22.60
2018-06-02T12:58:49.582Z,23.30
2018-06-02T13:01:18.657Z,24.20
2018-06-02T13:03:47.370Z,24.80
2018-06-02T13:06:15.844Z,26.90
2018-06-02T13:08:44.872Z,27.33
2018-06-02T13:11:13.979Z,26.40
2018-06-02T13:13:43.132Z,27.20
2018-06-02T13:16:12.137Z,25.47
2018-06-02T13:18:41.358Z,27.67
2018-06-02T13:21:09.950Z,27.50
2018-06-02T13:23:39.206Z,25.70
2018-06-02T13:26:07.621Z,25.63
2018-06-02T13:28:35.954Z,30.00
2018-06-02T13:31:04.249Z,24.93
2018-06-02T13:33:33.278Z,26.67
2018-06-02T13:36:03.061Z,24.87
2018-06-02T13:38:31.874Z,28.03
2018-06-02T13:41:01.117Z,26.80
2018-06-02T13:43:29.732Z,26.03
2018-06-02T13:45:58.327Z,26.63
2018-06-02T13:48:27.449Z,25.40
2018-06-02T13:50:56.086Z,25.57
2018-06-02T13:53:25.872Z,25.33
2018-06-02T13:55:54.689Z,25.07
2018-06-02T13:58:23.042Z,23.80
2018-06-02T14:00:52.721Z,25.20
2018-06-02T14:03:21.108Z,23.60
2018-06-02T14:05:49.461Z,26.00
2018-06-02T14:08:17.850Z,25.33
2018-06-02T14:10:47.804Z,24.27
2018-06-02T14:13:18.246Z,24.40
2018-06-02T14:15:48.221Z,23.17
2018-06-02T14:18:17.770Z,21.10
2018-06-02T14:20:46.197Z,21.90
2018-06-02T14:23:18.361Z,22.30
2018-06-02T14:25:46.669Z,22.73
2018-06-02T14:28:16.618Z,21.07
2018-06-02T14:30:45.054Z,22.90
2018-06-02T14:33:13.377Z,20.30
2018-06-02T14:35:41.687Z,21.20
2018-06-02T14:38:10.120Z,22.80
2018-06-02T14:40:39.545Z,23.60
2018-06-02T14:43:08.506Z,19.00
2018-06-02T14:45:37.609Z,19.20
2018-06-02T14:48:06.702Z,20.07
2018-06-02T14:50:36.523Z,20.93
2018-06-02T14:53:06.025Z,22.27
2018-06-02T14:55:35.083Z,20.27
2018-06-02T14:58:03.807Z,20.63
2018-06-02T15:00:34.441Z,19.30
2018-06-02T15:03:03.566Z,20.50
2018-06-02T15:05:31.987Z,20.70
2018-06-02T15:08:00.298Z,20.97
2018-06-02T15:10:29.388Z,20.47
2018-06-02T15:12:58.562Z,20.33
2018-06-02T15:15:26.955Z,20.90
2018-06-02T15:17:55.251Z,21.53
2018-06-02T15:20:24.453Z,21.70
2018-06-02T15:22:54.397Z,21.60
2018-06-02T15:25:23.438Z,23.40
2018-06-02T15:27:52.191Z,20.43
2018-06-02T15:30:21.266Z,22.80
2018-06-02T15:32:50.175Z,21.37
2018-06-02T15:35:18.922Z,24.10
2018-06-02T15:37:49.435Z,24.97
2018-06-02T15:40:19.981Z,25.83
2018-06-02T15:42:49.536Z,26.63
2018-06-02T15:45:18.140Z,25.93
2018-06-02T15:47:47.301Z,24.03
2018-06-02T15:50:16.329Z,26.00
2018-06-02T15:52:46.030Z,27.73
2018-06-02T15:55:14.340Z,26.87
2018-06-02T15:57:44.523Z,26.70
2018-06-02T16:00:14.209Z,26.60
2018-06-02T16:02:44.713Z,25.90
2018-06-02T16:05:13.033Z,27.73
2018-06-02T16:07:41.826Z,25.07
2018-06-02T16:10:10.519Z,27.20
2018-06-02T16:12:38.858Z,29.70
2018-06-02T16:15:08.835Z,27.77
2018-06-02T16:17:37.157Z,25.93
2018-06-02T16:20:06.258Z,26.97
2018-06-02T16:22:35.371Z,29.23
2018-06-02T16:25:04.210Z,30.93
2018-06-02T16:27:32.559Z,32.47
2018-06-02T16:30:01.768Z,31.10
2018-06-02T16:32:30.090Z,33.70
2018-06-02T16:34:59.727Z,34.07
2018-06-02T16:37:28.257Z,35.57
2018-06-02T16:39:57.336Z,36.80
2018-06-02T16:42:25.639Z,36.90
2018-06-02T16:44:55.750Z,34.80
2018-06-02T16:47:24.403Z,37.63
2018-06-02T16:49:52.741Z,36.57
2018-06-02T16:52:21.193Z,38.60
2018-06-02T16:54:50.309Z,37.77
2018-06-02T16:57:19.913Z,37.93
2018-06-02T16:59:48.801Z,37.80
2018-06-02T17:02:17.188Z,37.20
2018-06-02T17:04:46.288Z,38.90
2018-06-02T17:07:15.865Z,35.53
2018-06-02T17:09:44.813Z,35.10
2018-06-02T17:12:14.656Z,33.43
2018-06-02T17:14:43.648Z,33.67
2018-06-02T17:17:11.979Z,31.30
2018-06-02T17:19:42.294Z,33.00
2018-06-02T17:22:11.558Z,34.40
2018-06-02T17:24:40.310Z,35.53
2018-06-02T17:27:11.539Z,34.47
2018-06-02T17:29:41.121Z,34.10
2018-06-02T17:32:12.100Z,34.77
2018-06-02T17:34:41.358Z,34.10
2018-06-02T17:37:10.543Z,33.27
2018-06-02T17:39:38.859Z,34.20
2018-06-02T17:42:07.154Z,34.23
2018-06-02T17:44:35.520Z,36.83
2018-06-02T17:47:04.589Z,34.63
2018-06-02T17:49:32.928Z,37.07
2018-06-02T17:52:02.029Z,37.40
2018-06-02T17:54:31.195Z,38.00
2018-06-02T17:57:01.017Z,40.43
2018-06-02T17:59:29.342Z,39.63
2018-06-02T18:01:57.662Z,41.03
2018-06-02T18:04:25.975Z,41.83
2018-06-02T18:06:55.129Z,42.20
2018-06-02T18:09:23.741Z,44.63
2018-06-02T18:11:52.830Z,45.20
2018-06-02T18:14:21.143Z,44.57
2018-06-02T18:16:49.598Z,46.13
2018-06-02T18:19:18.743Z,46.30
2018-06-02T18:21:47.062Z,46.20
2018-06-02T18:24:15.624Z,47.73
2018-06-02T18:26:43.929Z,47.03
2018-06-02T18:29:12.254Z,48.60
2018-06-02T18:31:41.358Z,49.80
2018-06-02T18:34:09.943Z,48.50
2018-06-02T18:36:38.291Z,47.77
2018-06-02T18:39:07.445Z,48.30
2018-06-02T18:41:36.120Z,48.87
2018-06-02T18:44:04.735Z,46.10
2018-06-02T18:46:33.829Z,49.97
2018-06-02T18:49:03.202Z,45.60
2018-06-02T18:51:32.117Z,48.27
2018-06-02T18:54:01.103Z,50.23
2018-06-02T18:56:29.438Z,49.73
2018-06-02T18:58:57.752Z,49.80
2018-06-02T19:01:26.166Z,46.53
2018-06-02T19:03:55.439Z,49.73
2018-06-02T19:06:23.830Z,50.67
2018-06-02T19:08:52.952Z,46.47
2018-06-02T19:11:22.620Z,47.20
2018-06-02T19:13:51.222Z,45.30
2018-06-02T19:16:20.063Z,46.80
2018-06-02T19:18:48.354Z,43.67
2018-06-02T19:21:16.679Z,45.87
2018-06-02T19:23:45.017Z,45.00
2018-06-02T19:26:13.856Z,44.00
2018-06-02T19:28:42.237Z,44.13
2018-06-02T19:31:10.999Z,44.30
2018-06-02T19:33:39.344Z,43.10
2018-06-02T19:36:07.648Z,47.73
2018-06-02T19:38:35.983Z,44.03
2018-06-02T19:41:05.084Z,43.77
2018-06-02T19:43:34.184Z,43.57
2018-06-02T19:46:02.674Z,46.20
2018-06-02T19:48:31.091Z,43.33
2018-06-02T19:50:59.435Z,43.43
2018-06-02T19:53:27.758Z,43.33
2018-06-02T19:55:56.067Z,44.47
2018-06-02T19:58:25.220Z,46.43
2018-06-02T20:00:53.565Z,45.73
2018-06-02T20:03:22.136Z,44.90
2018-06-02T20:05:51.722Z,48.07
2018-06-02T20:08:20.670Z,43.63
2018-06-02T20:10:49.011Z,46.50
2018-06-02T20:13:18.080Z,48.43
2018-06-02T20:15:46.394Z,46.90
2018-06-02T20:18:15.756Z,46.67
2018-06-02T20:20:44.149Z,44.97
2018-06-02T20:23:16.495Z,48.57
2018-06-02T20:25:45.619Z,46.40
2018-06-02T20:28:16.140Z,44.17
2018-06-02T20:30:44.490Z,47.30
2018-06-02T20:33:13.413Z,45.50
2018-06-02T20:35:42.322Z,45.17
2018-06-02T20:38:12.412Z,45.60
2018-06-02T20:40:40.842Z,44.57
2018-06-02T20:43:11.020Z,41.57
2018-06-02T20:45:39.731Z,41.10
2018-06-02T20:48:08.125Z,42.70
2018-06-02T20:50:37.243Z,44.67
2018-06-02T20:53:06.348Z,42.13
2018-06-02T20:55:34.653Z,41.40
2018-06-02T20:58:03.793Z,41.60
2018-06-02T21:00:32.933Z,42.60
2018-06-02T21:03:01.795Z,39.93
2018-06-02T21:05:31.054Z,40.07
2018-06-02T21:08:00.971Z,38.30
2018-06-02T21:10:30.752Z,41.60
2018-06-02T21:12:59.094Z,40.80
2018-06-02T21:15:30.263Z,38.57
2018-06-02T21:17:58.558Z,38.10
2018-06-02T21:20:27.727Z,38.70
2018-06-02T21:22:57.646Z,39.37
2018-06-02T21:25:27.111Z,41.70
2018-06-02T21:27:56.533Z,40.10
2018-06-02T21:30:26.717Z,40.97
2018-06-02T21:32:55.998Z,42.27
2018-06-02T21:35:24.321Z,43.40
2018-06-02T21:37:52.824Z,41.23
2018-06-02T21:40:21.905Z,41.10
2018-06-02T21:42:50.973Z,43.00
2018-06-02T21:45:19.380Z,43.00
2018-06-02T21:47:49.136Z,43.20
2018-06-02T21:50:18.057Z,45.77
2018-06-02T21:52:46.443Z,44.20
2018-06-02T21:55:14.740Z,44.30
2018-06-02T21:57:43.824Z,43.50
2018-06-02T22:00:12.155Z,42.13
2018-06-02T22:02:40.458Z,41.97
2018-06-02T22:05:09.679Z,42.43
2018-06-02T22:07:38.058Z,44.67
2018-06-02T22:10:07.620Z,42.60
2018-06-02T22:12:35.923Z,41.80
2018-06-02T22:15:04.262Z,42.67
2018-06-02T22:17:33.359Z,44.67
2018-06-02T22:20:02.418Z,41.37
2018-06-02T22:22:31.495Z,43.30
2018-06-02T22:25:01.059Z,43.30
2018-06-02T22:27:31.094Z,43.37
2018-06-02T22:29:59.404Z,46.83
2018-06-02T22:32:27.763Z,45.70
2018-06-02T22:34:56.499Z,48.73
2018-06-02T22:37:25.604Z,46.20
2018-06-02T22:39:57.309Z,46.07
2018-06-02T22:42:25.674Z,46.63
2018-06-02T22:44:54.281Z,45.17
2018-06-02T22:47:23.220Z,53.40
2018-06-02T22:49:53.060Z,48.90
2018-06-02T22:52:22.122Z,49.07
2018-06-02T22:54:51.645Z,47.33
2018-06-02T22:57:22.835Z,47.87
2018-06-02T22:59:51.285Z,53.93
2018-06-02T23:02:20.428Z,51.73
2018-06-02T23:04:48.741Z,55.63
2018-06-02T23:07:18.380Z,55.20
2018-06-02T23:09:46.761Z,56.70
2018-06-02T23:12:16.291Z,58.07
2018-06-02T23:14:44.598Z,57.87
2018-06-02T23:17:12.921Z,58.70
2018-06-02T23:19:43.560Z,59.87
2018-06-02T23:25:51.234Z,56.33
2018-06-02T23:28:20.830Z,56.90
2018-06-02T23:30:50.485Z,55.93
2018-06-02T23:33:22.180Z,55.53
2018-06-02T23:35:51.801Z,55.60
2018-06-02T23:38:21.446Z,59.53
2018-06-02T23:40:50.874Z,56.73
2018-06-02T23:43:21.120Z,57.13
2018-06-02T23:45:50.669Z,61.57
2018-06-02T23:48:20.297Z,57.30
2018-06-02T23:50:50.137Z,59.13
2018-06-02T23:53:19.888Z,59.80
2018-06-02T23:55:49.981Z,60.50
2018-06-02T23:58:19.544Z,51.80
